Time;durP1;ratioP1;P1;durP2;ratioP2;P2;SDS_P1;SDS_P2;PMS_P1;PMS_P2;Temp;Humidity;BMP_temperature;BMP_pressure;BME280_temperature;BME280_humidity;BME280_pressure;Samples;Min_cycle;Max_cycle;Signal;HPM_P1;HPM_P2
2021/03/04 00:02:25;;;;;;;110.50;74.67;;;;;;;;;;4313677;33;20310;-59
2021/03/04 00:04:50;;;;;;;99.80;59.43;;;;;;;;;;4325429;33;20827;-59
2021/03/04 00:07:16;;;;;;;94.63;54.03;;;;;;;;;;4322838;33;20294;-58
2021/03/04 00:09:42;;;;;;;88.93;50.57;;;;;;;;;;4323939;33;20266;-55
2021/03/04 00:12:08;;;;;;;95.57;51.90;;;;;;;;;;4327081;33;20346;-59
2021/03/04 00:14:33;;;;;;;96.20;49.53;;;;;;;;;;4320820;33;20235;-59
2021/03/04 00:16:59;;;;;;;95.13;46.83;;;;;;;;;;4324469;33;20843;-60
2021/03/04 00:19:24;;;;;;;86.83;47.80;;;;;;;;;;4323248;33;20296;-60
2021/03/04 00:21:50;;;;;;;90.97;48.87;;;;;;;;;;4330209;33;20294;-61
2021/03/04 00:24:16;;;;;;;94.77;50.33;;;;;;;;;;4347436;32;20362;-60
2021/03/04 00:26:42;;;;;;;89.80;51.20;;;;;;;;;;4317061;33;20300;-60
2021/03/04 00:29:07;;;;;;;92.83;51.83;;;;;;;;;;4321446;33;20286;-61
2021/03/04 00:31:33;;;;;;;88.87;49.27;;;;;;;;;;4326385;33;20338;-62
2021/03/04 00:33:59;;;;;;;90.57;45.23;;;;;;;;;;4323419;33;20337;-62
2021/03/04 00:36:24;;;;;;;79.67;44.43;;;;;;;;;;4328444;33;20306;-61
2021/03/04 00:38:50;;;;;;;81.90;43.53;;;;;;;;;;4320978;33;20316;-61
2021/03/04 00:41:15;;;;;;;88.63;46.10;;;;;;;;;;4316615;33;20426;-61
2021/03/04 00:43:41;;;;;;;80.70;46.13;;;;;;;;;;4319266;33;20227;-61
2021/03/04 00:46:06;;;;;;;85.63;47.17;;;;;;;;;;4318511;33;20286;-62
2021/03/04 00:48:32;;;;;;;82.03;49.10;;;;;;;;;;4318461;33;20309;-62
2021/03/04 00:50:58;;;;;;;85.83;47.17;;;;;;;;;;4319189;33;20291;-61
2021/03/04 00:53:23;;;;;;;69.67;37.63;;;;;;;;;;4317260;33;20362;-62
2021/03/04 00:55:49;;;;;;;71.03;41.93;;;;;;;;;;4319053;33;20329;-63
2021/03/04 00:58:14;;;;;;;64.70;34.77;;;;;;;;;;4316476;33;20227;-62
2021/03/04 01:00:40;;;;;;;76.43;37.30;;;;;;;;;;4319719;33;20711;-62
2021/03/04 01:03:05;;;;;;;65.90;37.80;;;;;;;;;;4314526;33;20561;-63
2021/03/04 01:05:31;;;;;;;60.10;37.23;;;;;;;;;;4321534;33;20290;-64
2021/03/04 01:07:57;;;;;;;61.17;35.77;;;;;;;;;;4323587;33;20301;-63
2021/03/04 01:10:36;;;;;;;58.40;33.23;;;;;;;;;;4317925;33;20315;-61
2021/03/04 01:13:02;;;;;;;60.87;36.00;;;;;;;;;;4316738;33;20244;-61
2021/03/04 01:15:29;;;;;;;67.97;37.73;;;;;;;;;;4321603;33;20750;-59
2021/03/04 01:17:54;;;;;;;65.57;38.80;;;;;;;;;;4324941;33;20245;-60
2021/03/04 01:20:20;;;;;;;63.87;37.20;;;;;;;;;;4320053;33;20371;-58
2021/03/04 01:22:46;;;;;;;71.10;38.20;;;;;;;;;;4314895;33;20215;-57
2021/03/04 01:25:13;;;;;;;62.87;37.37;;;;;;;;;;4320132;33;20275;-58
2021/03/04 01:27:38;;;;;;;68.73;36.77;;;;;;;;;;4313917;33;20615;-57
2021/03/04 01:30:07;;;;;;;74.67;37.87;;;;;;;;;;4321227;33;20301;-57
2021/03/04 01:32:32;;;;;;;71.97;38.07;;;;;;;;;;4317571;33;20262;-56
2021/03/04 01:34:58;;;;;;;68.63;40.37;;;;;;;;;;4325479;33;20317;-59
2021/03/04 01:37:23;;;;;;;71.23;41.67;;;;;;;;;;4341625;32;20301;-59
2021/03/04 01:39:49;;;;;;;75.80;45.13;;;;;;;;;;4319370;33;20375;-57
2021/03/04 01:42:14;;;;;;;85.73;48.00;;;;;;;;;;4327946;33;20346;-58
2021/03/04 01:44:40;;;;;;;113.63;60.83;;;;;;;;;;4320274;33;20257;-59
2021/03/04 01:47:07;;;;;;;129.30;67.00;;;;;;;;;;4312843;33;20282;-58
2021/03/04 01:49:33;;;;;;;144.53;79.53;;;;;;;;;;4321190;33;20246;-59
2021/03/04 01:51:58;;;;;;;143.20;71.50;;;;;;;;;;4324131;33;20275;-61
2021/03/04 01:54:24;;;;;;;124.87;70.47;;;;;;;;;;4320453;33;20582;-61
2021/03/04 01:56:50;;;;;;;125.40;69.33;;;;;;;;;;4313357;33;20744;-59
2021/03/04 01:59:16;;;;;;;127.57;69.83;;;;;;;;;;4319898;33;20250;-58
2021/03/04 02:01:41;;;;;;;118.87;67.37;;;;;;;;;;4314143;33;20275;-58
2021/03/04 02:04:08;;;;;;;155.40;92.13;;;;;;;;;;4318620;33;20242;-58
2021/03/04 02:06:48;;;;;;;190.17;108.03;;;;;;;;;;4323160;33;20239;-58
2021/03/04 02:09:18;;;;;;;200.90;120.63;;;;;;;;;;4322071;33;20231;-58
2021/03/04 02:11:52;;;;;;;174.30;93.50;;;;;;;;;;4326155;33;20207;-58
2021/03/04 02:14:25;;;;;;;164.43;92.07;;;;;;;;;;4324514;33;20369;-57
2021/03/04 02:16:55;;;;;;;143.13;78.37;;;;;;;;;;4318791;33;20215;-57
2021/03/04 02:19:48;;;;;;;131.57;73.57;;;;;;;;;;4322182;33;20219;-60
2021/03/04 02:22:29;;;;;;;122.13;63.47;;;;;;;;;;4339360;32;20239;-58
2021/03/04 02:25:16;;;;;;;111.20;61.13;;;;;;;;;;4347236;32;20573;-58
2021/03/04 02:27:43;;;;;;;99.47;56.53;;;;;;;;;;4316959;33;20659;-58
2021/03/04 02:30:10;;;;;;;121.30;62.57;;;;;;;;;;4323758;33;20254;-58
2021/03/04 02:32:47;;;;;;;121.93;63.67;;;;;;;;;;4343566;32;20298;-57
2021/03/04 02:35:18;;;;;;;121.03;63.37;;;;;;;;;;4325707;33;20289;-57
2021/03/04 02:37:51;;;;;;;113.63;64.20;;;;;;;;;;4328834;33;20313;-58
2021/03/04 02:40:20;;;;;;;122.67;67.37;;;;;;;;;;4330754;33;20243;-57
2021/03/04 02:42:46;;;;;;;122.47;69.80;;;;;;;;;;4316996;33;20301;-57
2021/03/04 02:45:15;;;;;;;132.63;69.27;;;;;;;;;;4323712;33;20308;-58
2021/03/04 02:47:41;;;;;;;106.80;60.23;;;;;;;;;;4316304;33;20448;-58
2021/03/04 02:50:09;;;;;;;103.63;56.13;;;;;;;;;;4324467;33;20638;-58
2021/03/04 02:52:35;;;;;;;100.70;51.67;;;;;;;;;;4315891;33;20246;-58
2021/03/04 02:55:02;;;;;;;92.83;55.70;;;;;;;;;;4323714;33;20294;-56
2021/03/04 02:57:29;;;;;;;88.60;51.43;;;;;;;;;;4315825;33;20247;-55
2021/03/04 02:59:56;;;;;;;59.40;35.60;;;;;;;;;;4324023;33;20589;-55
2021/03/04 03:02:22;;;;;;;45.17;27.73;;;;;;;;;;4315827;33;20243;-55
2021/03/04 03:04:48;;;;;;;42.40;26.70;;;;;;;;;;4322140;33;20677;-55
2021/03/04 03:07:15;;;;;;;44.93;28.60;;;;;;;;;;4328104;33;20312;-55
2021/03/04 03:09:43;;;;;;;51.93;29.87;;;;;;;;;;4322930;33;20570;-55
2021/03/04 03:12:15;;;;;;;55.07;29.87;;;;;;;;;;4353339;32;20246;-55
2021/03/04 03:14:42;;;;;;;58.73;34.57;;;;;;;;;;4323515;33;20234;-55
2021/03/04 03:17:08;;;;;;;94.17;55.43;;;;;;;;;;4317198;33;20214;-56
2021/03/04 03:19:34;;;;;;;92.80;49.93;;;;;;;;;;4319838;33;20300;-56
2021/03/04 03:22:00;;;;;;;60.23;34.00;;;;;;;;;;4331577;33;20308;-57
2021/03/04 03:24:26;;;;;;;57.57;33.07;;;;;;;;;;4324986;33;20224;-56
2021/03/04 03:26:52;;;;;;;76.77;44.47;;;;;;;;;;4321147;33;20337;-56
2021/03/04 03:29:18;;;;;;;78.67;41.03;;;;;;;;;;4318478;33;20280;-56
2021/03/04 03:31:47;;;;;;;66.57;40.57;;;;;;;;;;4345593;32;20302;-56
2021/03/04 03:34:13;;;;;;;72.20;40.27;;;;;;;;;;4320652;33;20243;-57
2021/03/04 03:36:39;;;;;;;70.63;43.27;;;;;;;;;;4339661;32;20371;-56
2021/03/04 03:39:07;;;;;;;73.27;44.40;;;;;;;;;;4327758;33;20621;-56
2021/03/04 03:41:34;;;;;;;86.23;49.07;;;;;;;;;;4320287;33;20219;-55
2021/03/04 03:44:00;;;;;;;99.83;53.90;;;;;;;;;;4318877;33;20322;-55
2021/03/04 03:46:31;;;;;;;95.27;51.00;;;;;;;;;;4321444;33;20773;-55
2021/03/04 03:49:01;;;;;;;76.57;41.40;;;;;;;;;;4318465;33;20338;-55
2021/03/04 03:51:27;;;;;;;71.03;38.97;;;;;;;;;;4321330;33;20234;-55
2021/03/04 03:53:54;;;;;;;69.70;39.80;;;;;;;;;;4318028;33;20235;-55
2021/03/04 03:56:21;;;;;;;64.40;36.37;;;;;;;;;;4345345;32;20427;-56
2021/03/04 03:58:47;;;;;;;57.13;32.90;;;;;;;;;;4340783;32;20262;-55
2021/03/04 04:01:13;;;;;;;50.63;27.90;;;;;;;;;;4322622;33;20246;-55
2021/03/04 04:03:39;;;;;;;47.77;26.87;;;;;;;;;;4317358;33;20310;-56
2021/03/04 04:06:06;;;;;;;48.33;28.33;;;;;;;;;;4323498;33;20280;-55
2021/03/04 04:08:33;;;;;;;59.30;32.10;;;;;;;;;;4325638;33;20282;-55
2021/03/04 04:10:59;;;;;;;73.57;37.93;;;;;;;;;;4325010;33;20249;-55
2021/03/04 04:13:25;;;;;;;79.03;42.53;;;;;;;;;;4319473;33;20238;-56
2021/03/04 04:15:50;;;;;;;69.97;39.73;;;;;;;;;;4345549;32;20297;-57
2021/03/04 04:18:16;;;;;;;70.63;41.00;;;;;;;;;;4339566;32;20307;-56
2021/03/04 04:20:42;;;;;;;82.53;42.83;;;;;;;;;;4323546;33;20738;-57
2021/03/04 04:23:08;;;;;;;74.47;44.27;;;;;;;;;;4317673;33;20638;-56
2021/03/04 04:25:41;;;;;;;73.10;42.83;;;;;;;;;;4322998;33;20306;-57
2021/03/04 04:28:07;;;;;;;86.30;48.57;;;;;;;;;;4317975;33;20227;-55
2021/03/04 04:30:32;;;;;;;97.67;55.50;;;;;;;;;;4328033;33;20365;-56
2021/03/04 04:32:58;;;;;;;87.63;48.23;;;;;;;;;;4320400;33;20235;-55
2021/03/04 04:35:23;;;;;;;84.93;47.87;;;;;;;;;;4320174;33;20691;-56
2021/03/04 04:37:49;;;;;;;86.57;45.97;;;;;;;;;;4327601;33;20622;-56
2021/03/04 04:40:15;;;;;;;88.67;46.50;;;;;;;;;;4321024;33;20394;-55
2021/03/04 04:42:40;;;;;;;71.83;41.33;;;;;;;;;;4319144;33;20381;-55
2021/03/04 04:45:08;;;;;;;66.20;40.30;;;;;;;;;;4323187;33;20306;-60
2021/03/04 04:47:34;;;;;;;67.20;39.67;;;;;;;;;;4321097;33;20614;-55
2021/03/04 04:50:00;;;;;;;77.83;43.07;;;;;;;;;;4320719;33;20326;-54
2021/03/04 04:52:25;;;;;;;75.27;42.07;;;;;;;;;;4319469;33;20357;-54
2021/03/04 04:54:51;;;;;;;93.10;44.00;;;;;;;;;;4321002;33;20329;-58
2021/03/04 04:57:16;;;;;;;78.20;45.07;;;;;;;;;;4321043;33;20409;-57
2021/03/04 04:59:42;;;;;;;74.53;40.70;;;;;;;;;;4320574;33;20324;-59
2021/03/04 05:02:08;;;;;;;99.50;47.90;;;;;;;;;;4320810;33;20669;-57
2021/03/04 05:04:33;;;;;;;86.30;49.17;;;;;;;;;;4320637;33;20246;-55
2021/03/04 05:06:59;;;;;;;93.67;52.80;;;;;;;;;;4333442;33;20306;-56
2021/03/04 05:09:25;;;;;;;91.80;52.67;;;;;;;;;;4320870;33;20433;-55
2021/03/04 05:11:51;;;;;;;67.23;38.03;;;;;;;;;;4321118;33;20212;-55
2021/03/04 05:14:16;;;;;;;71.90;38.60;;;;;;;;;;4318489;33;20586;-55
2021/03/04 05:16:42;;;;;;;59.10;37.17;;;;;;;;;;4331929;33;20306;-54
2021/03/04 05:19:07;;;;;;;74.67;37.53;;;;;;;;;;4320152;33;20234;-57
2021/03/04 05:21:33;;;;;;;74.33;40.63;;;;;;;;;;4322499;33;20587;-57
2021/03/04 05:23:59;;;;;;;71.10;40.77;;;;;;;;;;4318311;33;20305;-59
2021/03/04 05:26:25;;;;;;;94.27;51.27;;;;;;;;;;4323258;33;20325;-57
2021/03/04 05:28:51;;;;;;;105.00;57.27;;;;;;;;;;4318276;33;20633;-58
2021/03/04 05:31:16;;;;;;;124.60;65.63;;;;;;;;;;4320528;33;20270;-60
2021/03/04 05:33:42;;;;;;;131.73;67.13;;;;;;;;;;4320914;33;20305;-59
2021/03/04 05:36:07;;;;;;;126.63;66.73;;;;;;;;;;4324778;33;20594;-57
2021/03/04 05:38:33;;;;;;;130.20;69.17;;;;;;;;;;4323060;33;20227;-58
2021/03/04 05:40:59;;;;;;;127.47;68.77;;;;;;;;;;4319932;33;20344;-55
2021/03/04 05:43:24;;;;;;;137.77;78.93;;;;;;;;;;4323308;33;20219;-56
2021/03/04 05:45:52;;;;;;;128.10;69.80;;;;;;;;;;4322271;33;20349;-56
2021/03/04 05:48:21;;;;;;;136.13;71.27;;;;;;;;;;4325832;33;20616;-56
2021/03/04 05:50:50;;;;;;;125.37;71.10;;;;;;;;;;4323014;33;20230;-58
2021/03/04 05:53:19;;;;;;;141.70;79.13;;;;;;;;;;4313972;33;20227;-59
2021/03/04 05:55:44;;;;;;;133.80;71.10;;;;;;;;;;4322782;33;20222;-56
2021/03/04 05:58:11;;;;;;;155.83;84.93;;;;;;;;;;4315314;33;20281;-57
2021/03/04 06:00:37;;;;;;;136.23;77.30;;;;;;;;;;4321908;33;20326;-57
2021/03/04 06:03:05;;;;;;;127.43;67.47;;;;;;;;;;4316273;33;20601;-58
2021/03/04 06:05:31;;;;;;;167.03;85.63;;;;;;;;;;4321122;33;20279;-58
2021/03/04 06:07:56;;;;;;;149.13;76.97;;;;;;;;;;4322571;33;20255;-59
2021/03/04 06:10:22;;;;;;;171.97;93.33;;;;;;;;;;4323377;33;20676;-60
2021/03/04 06:12:47;;;;;;;165.83;93.20;;;;;;;;;;4319073;33;20282;-59
2021/03/04 06:15:13;;;;;;;190.23;106.57;;;;;;;;;;4318411;33;21186;-60
2021/03/04 06:17:39;;;;;;;158.60;93.53;;;;;;;;;;4322606;33;20353;-59
2021/03/04 06:20:06;;;;;;;137.23;75.07;;;;;;;;;;4321208;33;20340;-60
2021/03/04 06:22:33;;;;;;;168.33;89.00;;;;;;;;;;4330727;33;20246;-58
2021/03/04 06:25:00;;;;;;;149.23;85.63;;;;;;;;;;4328123;33;20289;-57
2021/03/04 06:27:31;;;;;;;150.53;87.40;;;;;;;;;;4322209;33;20309;-57
2021/03/04 06:29:58;;;;;;;160.23;88.37;;;;;;;;;;4313348;33;20378;-58
2021/03/04 06:32:24;;;;;;;122.20;67.37;;;;;;;;;;4321650;33;20348;-59
2021/03/04 06:35:19;;;;;;;113.63;60.10;;;;;;;;;;4345855;33;20699;-59
2021/03/04 06:37:45;;;;;;;88.17;52.27;;;;;;;;;;4307278;33;20266;-59
2021/03/04 06:40:23;;;;;;;45.60;28.77;;;;;;;;;;4319123;33;20724;-60
2021/03/04 06:42:50;;;;;;;61.13;35.40;;;;;;;;;;4321552;33;20829;-59
2021/03/04 06:45:32;;;;;;;64.73;33.83;;;;;;;;;;4337821;33;20731;-60
2021/03/04 06:48:17;;;;;;;80.53;44.47;;;;;;;;;;4319977;33;20724;-60
2021/03/04 06:50:58;;;;;;;87.73;53.40;;;;;;;;;;4319139;33;20231;-55
2021/03/04 06:53:25;;;;;;;78.67;42.37;;;;;;;;;;4326800;33;20280;-58
2021/03/04 06:56:02;;;;;;;68.50;39.67;;;;;;;;;;4324054;33;20224;-58
2021/03/04 06:58:36;;;;;;;68.93;35.00;;;;;;;;;;4342958;32;20342;-60
2021/03/04 07:01:15;;;;;;;51.67;30.63;;;;;;;;;;4351238;32;20230;-57
2021/03/04 07:03:51;;;;;;;48.13;30.27;;;;;;;;;;4326412;33;20242;-56
2021/03/04 07:06:19;;;;;;;45.53;29.13;;;;;;;;;;4330054;33;20691;-59
2021/03/04 07:08:47;;;;;;;44.17;25.20;;;;;;;;;;4323476;33;20220;-60
2021/03/04 07:11:19;;;;;;;82.63;43.40;;;;;;;;;;4329565;33;20207;-55
2021/03/04 07:13:45;;;;;;;64.40;36.03;;;;;;;;;;4326227;33;20246;-58
2021/03/04 07:16:26;;;;;;;51.00;30.53;;;;;;;;;;4329672;33;20360;-57
2021/03/04 07:18:53;;;;;;;46.23;24.00;;;;;;;;;;4324617;33;20402;-58
2021/03/04 07:21:20;;;;;;;54.13;25.70;;;;;;;;;;4337971;33;20207;-57
2021/03/04 07:23:47;;;;;;;62.63;33.97;;;;;;;;;;4314249;33;20247;-57
2021/03/04 07:26:15;;;;;;;62.87;36.60;;;;;;;;;;4328286;33;20243;-58
2021/03/04 07:28:43;;;;;;;65.87;34.87;;;;;;;;;;4330325;32;20321;-57
2021/03/04 07:31:10;;;;;;;61.63;36.17;;;;;;;;;;4322856;33;20646;-58
2021/03/04 07:33:37;;;;;;;57.67;35.93;;;;;;;;;;4326787;33;20682;-57
2021/03/04 07:36:08;;;;;;;44.57;25.27;;;;;;;;;;4329985;33;20779;-58
2021/03/04 07:38:35;;;;;;;39.50;22.97;;;;;;;;;;4320748;33;20243;-56
2021/03/04 07:41:08;;;;;;;35.30;23.80;;;;;;;;;;4328151;32;20265;-58
2021/03/04 07:43:48;;;;;;;40.87;24.57;;;;;;;;;;4322691;33;20700;-59
2021/03/04 07:46:35;;;;;;;31.40;18.80;;;;;;;;;;4339475;33;20306;-58
2021/03/04 07:49:06;;;;;;;34.60;19.10;;;;;;;;;;4321359;33;20224;-58
2021/03/04 07:51:45;;;;;;;37.50;19.23;;;;;;;;;;4325104;33;20334;-57
2021/03/04 07:54:12;;;;;;;49.70;20.87;;;;;;;;;;4323386;33;20340;-59
2021/03/04 07:56:37;;;;;;;24.00;16.57;;;;;;;;;;4328711;33;20275;-59
2021/03/04 07:59:14;;;;;;;49.53;19.63;;;;;;;;;;4325867;33;20243;-59
2021/03/04 08:01:54;;;;;;;34.13;20.57;;;;;;;;;;4327662;33;20315;-59
2021/03/04 08:04:24;;;;;;;32.17;18.17;;;;;;;;;;4325955;33;20305;-59
2021/03/04 08:06:51;;;;;;;30.37;17.97;;;;;;;;;;4319908;33;20287;-58
2021/03/04 08:09:31;;;;;;;31.30;18.13;;;;;;;;;;4326398;33;20253;-58
2021/03/04 08:12:10;;;;;;;22.97;16.53;;;;;;;;;;4328386;33;20229;-59
2021/03/04 08:14:38;;;;;;;32.17;18.80;;;;;;;;;;4324684;33;20270;-59
2021/03/04 08:17:04;;;;;;;29.47;19.33;;;;;;;;;;4327954;33;20216;-58
2021/03/04 08:19:30;;;;;;;31.00;19.63;;;;;;;;;;4324820;33;20814;-59
2021/03/04 08:22:07;;;;;;;25.27;16.60;;;;;;;;;;4327760;33;20308;-59
2021/03/04 08:24:35;;;;;;;31.97;18.30;;;;;;;;;;4320355;33;20655;-58
2021/03/04 08:27:02;;;;;;;29.30;19.07;;;;;;;;;;4328037;33;20273;-58
2021/03/04 08:29:27;;;;;;;33.20;19.60;;;;;;;;;;4319710;33;20889;-60
2021/03/04 08:31:55;;;;;;;29.57;19.73;;;;;;;;;;4326867;33;20289;-59
2021/03/04 08:34:22;;;;;;;57.73;27.07;;;;;;;;;;4314041;33;20784;-60
2021/03/04 08:36:50;;;;;;;28.30;19.10;;;;;;;;;;4327657;33;20227;-60
2021/03/04 08:39:18;;;;;;;30.53;19.10;;;;;;;;;;4321528;33;20231;-59
2021/03/04 08:41:43;;;;;;;34.47;20.93;;;;;;;;;;4327780;33;20245;-60
2021/03/04 08:44:13;;;;;;;36.77;20.67;;;;;;;;;;4347343;32;20675;-60
2021/03/04 08:46:40;;;;;;;38.80;21.70;;;;;;;;;;4324935;33;20584;-59
2021/03/04 08:49:06;;;;;;;34.43;18.63;;;;;;;;;;4324390;33;20286;-59
2021/03/04 08:51:33;;;;;;;30.47;19.27;;;;;;;;;;4327774;33;20273;-60
2021/03/04 08:53:58;;;;;;;30.80;18.60;;;;;;;;;;4325341;33;20385;-58
2021/03/04 08:56:24;;;;;;;48.13;19.67;;;;;;;;;;4327521;33;20668;-59
2021/03/04 08:58:49;;;;;;;29.97;17.03;;;;;;;;;;4324084;33;20848;-59
2021/03/04 09:01:15;;;;;;;28.57;16.07;;;;;;;;;;4324463;33;20323;-59
2021/03/04 09:03:44;;;;;;;26.93;16.07;;;;;;;;;;4318391;33;20286;-58
2021/03/04 09:06:12;;;;;;;36.27;16.97;;;;;;;;;;4331266;33;20820;-59
2021/03/04 09:08:57;;;;;;;29.77;15.37;;;;;;;;;;4327675;33;20271;-59
2021/03/04 09:11:33;;;;;;;31.80;17.93;;;;;;;;;;4327555;33;20300;-58
2021/03/04 09:14:09;;;;;;;37.87;14.13;;;;;;;;;;4356347;32;20246;-59
2021/03/04 09:16:38;;;;;;;21.20;14.40;;;;;;;;;;4323807;33;20275;-60
2021/03/04 09:19:04;;;;;;;35.33;11.60;;;;;;;;;;4327312;33;20223;-59
2021/03/04 09:21:30;;;;;;;18.90;12.20;;;;;;;;;;4320170;33;20421;-59
2021/03/04 09:23:56;;;;;;;19.60;12.93;;;;;;;;;;4324844;33;20231;-58
2021/03/04 09:26:22;;;;;;;24.37;14.23;;;;;;;;;;4318903;33;20350;-59
2021/03/04 09:28:48;;;;;;;16.70;10.43;;;;;;;;;;4324861;33;20399;-59
2021/03/04 09:31:15;;;;;;;21.37;11.10;;;;;;;;;;4324550;33;20294;-62
2021/03/04 09:33:44;;;;;;;17.80;11.20;;;;;;;;;;4325431;33;20414;-61
2021/03/04 09:36:10;;;;;;;18.70;11.60;;;;;;;;;;4326621;33;20332;-61
2021/03/04 09:38:37;;;;;;;19.83;11.93;;;;;;;;;;4327667;33;20231;-62
2021/03/04 09:41:15;;;;;;;23.73;12.07;;;;;;;;;;4323911;33;20230;-61
2021/03/04 09:43:43;;;;;;;24.17;11.60;;;;;;;;;;4320696;33;20306;-61
2021/03/04 09:46:09;;;;;;;16.77;10.10;;;;;;;;;;4318339;33;20219;-61
2021/03/04 09:48:38;;;;;;;20.30;11.63;;;;;;;;;;4326701;33;20219;-61
2021/03/04 09:51:04;;;;;;;21.20;10.87;;;;;;;;;;4324191;33;20693;-62
2021/03/04 09:53:30;;;;;;;17.13;10.50;;;;;;;;;;4333701;33;20328;-62
2021/03/04 09:55:55;;;;;;;15.40;9.83;;;;;;;;;;4324203;33;20721;-61
2021/03/04 09:58:24;;;;;;;15.53;10.10;;;;;;;;;;4323445;33;20353;-62
2021/03/04 10:00:57;;;;;;;15.20;11.70;;;;;;;;;;4327196;33;20282;-62
2021/03/04 10:03:34;;;;;;;18.87;10.97;;;;;;;;;;4322887;33;20257;-61
2021/03/04 10:06:00;;;;;;;25.60;14.80;;;;;;;;;;4326788;33;20250;-54
2021/03/04 10:08:35;;;;;;;15.83;9.90;;;;;;;;;;4313619;33;20301;-54
2021/03/04 10:11:01;;;;;;;18.17;10.70;;;;;;;;;;4324446;33;20262;-53
2021/03/04 10:13:27;;;;;;;18.20;13.23;;;;;;;;;;4326710;33;20636;-53
2021/03/04 10:15:53;;;;;;;15.57;9.37;;;;;;;;;;4325260;33;20259;-54
2021/03/04 10:18:19;;;;;;;18.57;9.30;;;;;;;;;;4325669;33;20242;-53
2021/03/04 10:20:46;;;;;;;19.93;10.27;;;;;;;;;;4326793;33;20282;-53
2021/03/04 10:23:16;;;;;;;18.73;14.07;;;;;;;;;;4327052;33;20226;-53
2021/03/04 10:25:43;;;;;;;22.23;10.97;;;;;;;;;;4313554;33;20275;-53
2021/03/04 10:28:09;;;;;;;22.37;10.73;;;;;;;;;;4320427;33;20234;-52
2021/03/04 10:30:35;;;;;;;20.53;11.53;;;;;;;;;;4349826;33;20365;-54
2021/03/04 10:33:03;;;;;;;16.37;11.73;;;;;;;;;;4325825;33;20289;-52
2021/03/04 10:35:29;;;;;;;27.17;11.20;;;;;;;;;;4329716;33;20755;-54
2021/03/04 10:37:55;;;;;;;15.27;10.53;;;;;;;;;;4329103;33;20222;-53
2021/03/04 10:40:21;;;;;;;39.03;14.57;;;;;;;;;;4328475;33;20312;-53
2021/03/04 10:42:48;;;;;;;18.43;11.47;;;;;;;;;;4326640;33;20690;-53
2021/03/04 10:45:15;;;;;;;16.30;12.10;;;;;;;;;;4330029;33;20301;-54
2021/03/04 10:47:43;;;;;;;16.90;11.33;;;;;;;;;;4324084;33;20649;-53
2021/03/04 10:50:15;;;;;;;17.57;11.60;;;;;;;;;;4323761;33;20287;-53
2021/03/04 10:52:40;;;;;;;34.60;12.93;;;;;;;;;;4321208;33;20336;-54
2021/03/04 10:55:09;;;;;;;16.77;11.53;;;;;;;;;;4327031;33;20290;-55
2021/03/04 10:57:36;;;;;;;21.37;12.37;;;;;;;;;;4329715;33;20227;-52
2021/03/04 11:00:07;;;;;;;21.63;11.27;;;;;;;;;;4330180;33;20242;-54
2021/03/04 11:02:32;;;;;;;15.90;10.83;;;;;;;;;;4344452;32;20723;-53
2021/03/04 11:04:58;;;;;;;21.97;12.97;;;;;;;;;;4329326;33;20215;-53
2021/03/04 11:07:24;;;;;;;23.73;13.00;;;;;;;;;;4330134;33;20266;-54
2021/03/04 11:09:51;;;;;;;20.87;10.97;;;;;;;;;;4326820;33;20326;-53
2021/03/04 11:12:18;;;;;;;21.97;11.70;;;;;;;;;;4321168;33;20354;-58
2021/03/04 11:14:43;;;;;;;22.97;12.17;;;;;;;;;;4327615;33;20243;-54
2021/03/04 11:17:09;;;;;;;21.17;11.67;;;;;;;;;;4323818;33;20878;-54
2021/03/04 11:19:34;;;;;;;16.40;9.80;;;;;;;;;;4324657;33;20215;-53
2021/03/04 11:22:00;;;;;;;23.03;11.93;;;;;;;;;;4324676;33;20302;-54
2021/03/04 11:24:25;;;;;;;18.70;12.20;;;;;;;;;;4326560;33;20271;-54
2021/03/04 11:26:51;;;;;;;20.77;12.63;;;;;;;;;;4344940;32;20748;-54
2021/03/04 11:29:16;;;;;;;27.00;12.07;;;;;;;;;;4329020;33;20253;-54
2021/03/04 11:31:42;;;;;;;22.30;11.13;;;;;;;;;;4328513;33;20262;-55
2021/03/04 11:34:08;;;;;;;28.00;12.67;;;;;;;;;;4327786;33;20231;-55
2021/03/04 11:36:34;;;;;;;20.60;11.03;;;;;;;;;;4327285;33;20270;-53
2021/03/04 11:39:00;;;;;;;18.10;11.33;;;;;;;;;;4328220;33;20310;-54
2021/03/04 11:41:26;;;;;;;17.93;11.40;;;;;;;;;;4327917;33;20408;-54
2021/03/04 11:43:52;;;;;;;18.60;10.57;;;;;;;;;;4327863;33;20243;-55
2021/03/04 11:46:21;;;;;;;23.60;10.37;;;;;;;;;;4325982;33;20384;-54
2021/03/04 11:48:47;;;;;;;17.83;9.57;;;;;;;;;;4325721;33;20258;-53
2021/03/04 11:51:13;;;;;;;11.20;8.60;;;;;;;;;;4324957;33;20246;-54
2021/03/04 11:53:39;;;;;;;19.50;10.77;;;;;;;;;;4325271;33;20306;-52
2021/03/04 11:56:05;;;;;;;14.80;9.07;;;;;;;;;;4327985;33;20328;-54
2021/03/04 11:58:30;;;;;;;13.20;9.97;;;;;;;;;;4329515;33;20333;-54
2021/03/04 12:00:56;;;;;;;16.52;9.48;;;;;;;;;;4324891;33;20350;-53
2021/03/04 12:03:22;;;;;;;15.95;8.90;;;;;;;;;;4326574;33;20247;-53
2021/03/04 12:05:48;;;;;;;15.60;8.50;;;;;;;;;;4321956;33;20322;-54
2021/03/04 12:08:14;;;;;;;16.70;7.95;;;;;;;;;;4325269;33;20235;-54
2021/03/04 12:10:40;;;;;;;12.57;7.87;;;;;;;;;;4325811;33;20313;-54
2021/03/04 12:13:07;;;;;;;15.35;12.30;;;;;;;;;;4326834;33;20698;-54
2021/03/04 12:15:33;;;;;;;18.37;9.90;;;;;;;;;;4327395;33;20774;-55
2021/03/04 12:17:58;;;;;;;16.17;10.13;;;;;;;;;;4346125;32;20262;-54
2021/03/04 12:20:24;;;;;;;19.20;7.50;;;;;;;;;;4325646;33;20310;-54
2021/03/04 12:22:50;;;;;;;11.95;7.93;;;;;;;;;;4326677;33;21452;-54
2021/03/04 12:25:15;;;;;;;18.12;7.93;;;;;;;;;;4326554;33;20616;-55
2021/03/04 12:27:41;;;;;;;13.82;9.00;;;;;;;;;;4328536;33;20233;-53
2021/03/04 12:30:07;;;;;;;12.45;8.32;;;;;;;;;;4331188;33;20360;-54
2021/03/04 12:32:34;;;;;;;21.42;10.38;;;;;;;;;;4326253;33;20270;-53
2021/03/04 12:34:59;;;;;;;10.38;6.57;;;;;;;;;;4325077;33;20278;-53
2021/03/04 12:37:25;;;;;;;11.93;6.55;;;;;;;;;;4323765;33;20297;-54
2021/03/04 12:39:50;;;;;;;9.55;6.05;;;;;;;;;;4325616;33;20622;-55
2021/03/04 12:42:16;;;;;;;8.70;5.55;;;;;;;;;;4330351;33;20361;-53
2021/03/04 12:44:41;;;;;;;12.48;7.60;;;;;;;;;;4327317;33;20294;-53
2021/03/04 12:47:07;;;;;;;16.75;6.62;;;;;;;;;;4324071;33;20286;-53
2021/03/04 12:49:32;;;;;;;15.48;6.93;;;;;;;;;;4322238;33;20231;-53
2021/03/04 12:51:58;;;;;;;10.45;6.37;;;;;;;;;;4333393;32;20787;-53
2021/03/04 12:54:23;;;;;;;16.25;10.73;;;;;;;;;;4330494;33;20704;-54
2021/03/04 12:56:49;;;;;;;16.37;9.85;;;;;;;;;;4331568;33;20400;-55
2021/03/04 12:59:15;;;;;;;17.02;6.25;;;;;;;;;;4329138;33;20885;-53
2021/03/04 13:01:41;;;;;;;9.18;5.72;;;;;;;;;;4330580;33;20416;-54
2021/03/04 13:04:08;;;;;;;7.57;4.93;;;;;;;;;;4325200;33;20269;-54
2021/03/04 13:06:34;;;;;;;7.10;5.50;;;;;;;;;;4321791;33;20372;-54
2021/03/04 13:09:00;;;;;;;11.93;6.15;;;;;;;;;;4326612;33;20318;-53
2021/03/04 13:11:27;;;;;;;9.07;5.60;;;;;;;;;;4326662;33;20328;-54
2021/03/04 13:13:52;;;;;;;9.23;5.12;;;;;;;;;;4326506;33;20249;-53
2021/03/04 13:16:18;;;;;;;13.88;5.15;;;;;;;;;;4327867;33;20673;-54
2021/03/04 13:18:43;;;;;;;10.10;6.12;;;;;;;;;;4322290;33;20226;-53
2021/03/04 13:21:09;;;;;;;14.98;5.87;;;;;;;;;;4326356;33;20858;-53
2021/03/04 13:23:34;;;;;;;12.02;6.43;;;;;;;;;;4327930;33;20293;-52
2021/03/04 13:26:00;;;;;;;12.02;5.70;;;;;;;;;;4327523;33;20293;-55
2021/03/04 13:28:25;;;;;;;11.45;6.90;;;;;;;;;;4324252;33;20219;-53
2021/03/04 13:30:51;;;;;;;12.43;6.45;;;;;;;;;;4324344;33;20413;-53
2021/03/04 13:33:16;;;;;;;6.70;4.68;;;;;;;;;;4325888;33;20223;-53
2021/03/04 13:35:42;;;;;;;8.55;4.10;;;;;;;;;;4323419;33;20309;-54
2021/03/04 13:38:09;;;;;;;11.40;4.30;;;;;;;;;;4325746;33;20215;-53
2021/03/04 13:40:35;;;;;;;10.57;5.18;;;;;;;;;;4322720;33;20213;-67
2021/03/04 13:43:01;;;;;;;15.38;4.22;;;;;;;;;;4328461;33;20215;-66
2021/03/04 13:45:26;;;;;;;15.70;5.00;;;;;;;;;;4324616;33;20717;-70
2021/03/04 13:47:52;;;;;;;7.00;5.07;;;;;;;;;;4316485;33;20313;-69
2021/03/04 13:50:17;;;;;;;8.32;4.07;;;;;;;;;;4331732;33;20775;-68
2021/03/04 13:52:43;;;;;;;5.40;3.40;;;;;;;;;;4330181;33;20524;-71
2021/03/04 13:55:09;;;;;;;6.72;3.33;;;;;;;;;;4321843;33;20298;-70
2021/03/04 13:57:34;;;;;;;9.63;4.72;;;;;;;;;;4319815;33;20349;-70
2021/03/04 14:00:00;;;;;;;13.05;4.05;;;;;;;;;;4348764;32;20318;-69
2021/03/04 14:02:25;;;;;;;7.10;4.20;;;;;;;;;;4329728;33;20344;-70
2021/03/04 14:04:51;;;;;;;10.65;5.43;;;;;;;;;;4326460;33;20275;-69
2021/03/04 14:07:16;;;;;;;5.93;3.85;;;;;;;;;;4317207;33;20298;-68
2021/03/04 14:09:42;;;;;;;10.23;3.97;;;;;;;;;;4324411;33;20246;-69
2021/03/04 14:12:08;;;;;;;6.82;4.47;;;;;;;;;;4334974;33;20672;-68
2021/03/04 14:14:33;;;;;;;9.43;4.43;;;;;;;;;;4325092;33;20215;-66
2021/03/04 14:16:59;;;;;;;11.35;3.92;;;;;;;;;;4327401;33;20286;-63
2021/03/04 14:19:24;;;;;;;3.72;3.12;;;;;;;;;;4344481;33;20302;-69
2021/03/04 14:21:50;;;;;;;6.93;2.83;;;;;;;;;;4320051;33;20262;-66